Time;durP1;ratioP1;P1;durP2;ratioP2;P2;SDS_P1;SDS_P2;PMS_P1;PMS_P2;Temp;Humidity;BMP_temperature;BMP_pressure;BME280_temperature;BME280_humidity;BME280_pressure;Samples;Min_cycle;Max_cycle;Signal;HPM_P1;HPM_P2
2022/07/24 00:01:33;;;;;;;23.25;4.07;;;;;;;47.16;15.41;100469.97;5043241;28;20032;-70
2022/07/24 00:04:00;;;;;;;19.08;4.43;;;;;;;47.54;15.41;100460.47;5043459;28;20707;-69
2022/07/24 00:06:27;;;;;;;16.45;4.32;;;;;;;46.95;15.38;100467.38;5039615;28;20439;-69
2022/07/24 00:08:54;;;;;;;14.15;3.85;;;;;;;46.94;15.71;100465.03;5054060;28;20227;-71
2022/07/24 00:11:21;;;;;;;17.38;4.28;;;;;;;45.89;16.76;100458.56;5041952;28;20155;-69
2022/07/24 00:13:48;;;;;;;18.33;3.80;;;;;;;45.75;16.92;100468.94;5041674;28;20025;-70
2022/07/24 00:16:15;;;;;;;18.80;3.92;;;;;;;47.02;15.38;100453.75;5048054;28;20175;-69
2022/07/24 00:18:42;;;;;;;25.33;4.28;;;;;;;47.50;15.16;100451.31;5048137;28;20040;-70
2022/07/24 00:21:09;;;;;;;19.35;4.68;;;;;;;46.57;15.83;100451.66;5040424;28;20033;-70
2022/07/24 00:23:35;;;;;;;29.63;4.68;;;;;;;47.12;15.99;100452.16;5040851;28;20036;-70
2022/07/24 00:26:02;;;;;;;21.88;4.18;;;;;;;47.32;15.83;100443.25;5051702;28;20208;-69
2022/07/24 00:28:29;;;;;;;21.10;4.32;;;;;;;47.21;15.40;100438.28;5050384;28;20154;-68
2022/07/24 00:30:56;;;;;;;18.75;3.78;;;;;;;46.29;16.23;100437.25;5056484;28;20035;-69
2022/07/24 00:33:23;;;;;;;32.25;4.80;;;;;;;46.81;16.15;100431.03;5046826;28;20037;-69
2022/07/24 00:35:50;;;;;;;19.92;4.07;;;;;;;46.79;15.45;100433.66;5052197;28;20029;-69
2022/07/24 00:38:17;;;;;;;25.65;4.03;;;;;;;47.22;15.53;100427.56;5051385;28;20493;-70
2022/07/24 00:40:44;;;;;;;13.98;3.70;;;;;;;47.24;14.47;100422.09;5054260;28;20487;-69
2022/07/24 00:43:12;;;;;;;24.00;3.63;;;;;;;46.79;15.47;100430.75;5061130;28;20048;-69
2022/07/24 00:45:39;;;;;;;23.95;3.83;;;;;;;46.66;15.17;100427.59;5050904;28;20040;-69
2022/07/24 00:48:06;;;;;;;23.13;3.67;;;;;;;46.13;16.46;100428.59;5035096;28;20555;-69
2022/07/24 00:50:33;;;;;;;18.08;3.35;;;;;;;45.44;17.70;100434.59;5034390;28;20048;-70
2022/07/24 00:53:00;;;;;;;16.13;3.60;;;;;;;45.26;17.97;100435.03;5044174;28;20025;-69
2022/07/24 00:55:28;;;;;;;22.05;3.90;;;;;;;44.63;18.45;100426.44;5048629;28;20036;-69
2022/07/24 00:57:55;;;;;;;18.17;3.90;;;;;;;44.49;19.03;100431.81;5048004;28;20021;-70
2022/07/24 01:00:22;;;;;;;21.85;4.50;;;;;;;44.81;18.63;100423.97;5061890;28;20045;-69
2022/07/24 01:02:50;;;;;;;23.15;4.18;;;;;;;44.94;18.44;100414.19;5053681;28;20032;-69
2022/07/24 01:05:18;;;;;;;14.23;3.97;;;;;;;43.88;18.97;100419.69;5051410;28;20041;-68
2022/07/24 01:07:45;;;;;;;17.48;3.90;;;;;;;43.70;19.48;100429.38;5045914;28;20025;-69
2022/07/24 01:10:13;;;;;;;13.55;3.30;;;;;;;42.77;20.48;100423.31;5063389;28;20083;-70
2022/07/24 01:12:40;;;;;;;23.52;3.70;;;;;;;42.93;20.47;100429.81;5046073;28;20048;-69
2022/07/24 01:15:09;;;;;;;37.00;4.85;;;;;;;42.40;21.07;100439.28;5047499;28;20024;-70
2022/07/24 01:17:39;;;;;;;24.90;4.97;;;;;;;42.73;20.96;100439.88;5038790;28;20060;-71
2022/07/24 01:20:08;;;;;;;20.92;4.70;;;;;;;43.27;20.32;100428.22;5047804;28;20037;-70
2022/07/24 01:22:35;;;;;;;17.33;4.30;;;;;;;42.76;21.22;100438.91;5050758;28;20031;-70
2022/07/24 01:25:01;;;;;;;21.25;4.20;;;;;;;42.78;20.79;100444.13;5047199;28;20412;-70
2022/07/24 01:27:28;;;;;;;21.98;4.50;;;;;;;42.35;22.13;100431.38;5061469;28;20866;-69
2022/07/24 01:29:55;;;;;;;17.55;4.55;;;;;;;41.67;22.64;100451.34;5044255;28;20032;-70
2022/07/24 01:32:22;;;;;;;30.20;4.93;;;;;;;42.25;22.18;100442.13;5061978;28;20024;-71
2022/07/24 01:34:49;;;;;;;23.52;4.38;;;;;;;42.19;22.10;100442.03;5051712;28;20104;-71
2022/07/24 01:37:16;;;;;;;20.25;4.28;;;;;;;42.16;22.03;100445.06;5037634;28;20040;-70
2022/07/24 01:39:43;;;;;;;23.30;6.25;;;;;;;41.17;23.08;100445.25;5056098;28;20367;-72
2022/07/24 01:42:10;;;;;;;23.25;5.47;;;;;;;41.09;22.92;100464.75;5046430;28;20045;-72
2022/07/24 01:44:36;;;;;;;17.90;4.10;;;;;;;40.59;24.01;100463.50;5058251;28;20044;-72
2022/07/24 01:47:03;;;;;;;28.02;5.18;;;;;;;40.63;23.84;100452.72;5045271;28;20030;-71
2022/07/24 01:49:33;;;;;;;23.58;5.00;;;;;;;40.64;23.82;100451.44;5044548;28;20531;-70
2022/07/24 01:52:00;;;;;;;13.60;4.53;;;;;;;40.65;24.44;100467.28;5037393;28;20029;-72
2022/07/24 01:54:26;;;;;;;17.55;4.30;;;;;;;39.94;25.48;100467.63;5053496;28;20061;-72
2022/07/24 01:56:53;;;;;;;21.77;4.60;;;;;;;39.88;24.49;100471.09;5030692;28;20036;-70
2022/07/24 01:59:20;;;;;;;19.30;4.68;;;;;;;39.49;25.32;100466.25;5047485;28;20071;-69
2022/07/24 02:01:47;;;;;;;16.10;4.13;;;;;;;39.25;26.29;100468.88;5046061;28;20183;-69
2022/07/24 02:04:13;;;;;;;15.48;3.97;;;;;;;39.12;26.18;100465.34;5042968;28;20033;-71
2022/07/24 02:06:40;;;;;;;13.85;3.50;;;;;;;38.86;26.30;100491.13;5038814;28;20036;-72
2022/07/24 02:09:07;;;;;;;22.88;4.00;;;;;;;38.84;27.09;100473.75;5056919;28;20400;-69
2022/07/24 02:11:34;;;;;;;18.00;3.90;;;;;;;38.93;27.17;100481.53;5044359;28;20043;-72
2022/07/24 02:14:01;;;;;;;32.72;3.80;;;;;;;38.74;26.96;100477.00;5048422;28;20034;-68
2022/07/24 02:16:30;;;;;;;22.60;3.92;;;;;;;38.52;27.26;100480.63;5039958;28;20430;-70
2022/07/24 02:18:57;;;;;;;21.88;3.78;;;;;;;38.38;27.83;100492.53;5045308;28;20095;-71
2022/07/24 02:21:25;;;;;;;25.20;4.55;;;;;;;38.05;28.22;100504.22;5046640;28;20053;-69
2022/07/24 02:23:52;;;;;;;17.08;4.15;;;;;;;37.83;28.41;100505.44;5060017;28;20036;-69
2022/07/24 02:26:19;;;;;;;14.65;3.58;;;;;;;37.75;28.57;100507.72;5048924;28;20017;-68
2022/07/24 02:28:46;;;;;;;20.50;3.55;;;;;;;37.53;28.69;100493.44;5046341;28;20034;-68
2022/07/24 02:31:13;;;;;;;22.33;3.97;;;;;;;37.34;28.88;100511.47;5049656;28;20021;-70
2022/07/24 02:33:40;;;;;;;18.05;3.38;;;;;;;37.25;28.91;100520.63;5047196;28;20045;-70
2022/07/24 02:36:07;;;;;;;24.55;4.07;;;;;;;37.09;28.52;100517.91;5047591;28;20079;-68
2022/07/24 02:38:34;;;;;;;19.58;3.83;;;;;;;36.99;28.34;100524.72;5049195;28;20025;-70
2022/07/24 02:41:01;;;;;;;31.58;4.68;;;;;;;36.92;28.79;100526.50;5046628;28;20033;-67
2022/07/24 02:43:28;;;;;;;16.77;3.65;;;;;;;36.77;29.06;100528.13;5051254;28;20376;-69
2022/07/24 02:45:54;;;;;;;27.20;4.15;;;;;;;36.64;29.54;100535.03;5034234;28;20368;-69
2022/07/24 02:48:21;;;;;;;16.92;3.70;;;;;;;36.50;30.38;100539.06;5035423;28;20165;-69
2022/07/24 02:50:48;;;;;;;32.70;5.13;;;;;;;36.37;30.83;100535.38;5047869;28;20525;-68
2022/07/24 02:53:15;;;;;;;24.02;4.13;;;;;;;36.35;31.18;100537.88;5039532;28;20048;-67
2022/07/24 02:55:41;;;;;;;20.50;4.60;;;;;;;36.23;31.34;100537.31;5037998;28;20033;-70
2022/07/24 02:58:08;;;;;;;13.98;4.38;;;;;;;36.25;31.87;100546.16;5048067;28;20534;-69
2022/07/24 03:00:35;;;;;;;20.30;4.90;;;;;;;36.19;31.96;100550.00;5034516;28;20026;-70
2022/07/24 03:03:02;;;;;;;18.48;4.93;;;;;;;36.00;31.90;100544.00;5045856;28;20038;-68
2022/07/24 03:05:29;;;;;;;27.40;5.05;;;;;;;35.97;32.67;100555.41;5050329;28;20364;-69
2022/07/24 03:07:56;;;;;;;35.25;4.55;;;;;;;35.92;33.06;100558.78;5052092;28;20037;-67
2022/07/24 03:10:23;;;;;;;21.00;4.60;;;;;;;35.77;33.74;100558.31;5035482;28;20124;-69
2022/07/24 03:12:50;;;;;;;77.43;7.22;;;;;;;35.67;33.92;100560.16;5047585;28;20120;-69
2022/07/24 03:15:17;;;;;;;22.98;5.28;;;;;;;35.58;34.04;100560.00;5041344;28;20036;-69
2022/07/24 03:17:56;;;;;;;18.83;4.35;;;;;;;35.54;33.49;100564.91;5042849;28;20399;-69
2022/07/24 03:20:25;;;;;;;13.82;4.88;;;;;;;35.43;33.75;100570.03;5052786;28;20376;-70
2022/07/24 03:22:52;;;;;;;25.60;5.50;;;;;;;35.40;33.66;100577.38;5041379;28;20515;-69
2022/07/24 03:25:22;;;;;;;29.27;5.13;;;;;;;35.28;33.24;100569.53;5047420;28;20041;-68
2022/07/24 03:27:49;;;;;;;21.88;4.82;;;;;;;35.29;33.38;100587.28;5048839;28;20021;-69
2022/07/24 03:30:17;;;;;;;24.20;4.90;;;;;;;35.13;33.54;100574.69;5039571;28;20036;-68
2022/07/24 03:32:44;;;;;;;29.88;5.43;;;;;;;35.11;33.77;100584.84;5052170;28;20030;-69
2022/07/24 03:35:11;;;;;;;16.80;4.50;;;;;;;35.01;33.46;100583.88;5050438;28;20068;-68
2022/07/24 03:37:38;;;;;;;24.70;4.88;;;;;;;34.97;33.67;100588.78;5054611;28;20478;-70
2022/07/24 03:40:06;;;;;;;22.67;4.60;;;;;;;34.95;34.10;100591.25;5040962;28;20041;-67
2022/07/24 03:42:32;;;;;;;20.92;4.53;;;;;;;34.85;35.02;100586.63;5051029;28;20186;-68
2022/07/24 03:45:00;;;;;;;16.23;4.75;;;;;;;34.76;35.98;100594.81;5041899;28;20153;-72
2022/07/24 03:47:26;;;;;;;18.55;4.60;;;;;;;34.70;36.56;100599.41;5046189;28;20156;-68
2022/07/24 03:49:53;;;;;;;23.60;5.07;;;;;;;34.67;36.50;100592.59;5047648;28;20044;-69
2022/07/24 03:52:20;;;;;;;17.02;4.90;;;;;;;34.61;37.27;100601.97;5038148;28;20021;-69
2022/07/24 03:54:46;;;;;;;20.95;5.38;;;;;;;34.56;37.50;100592.00;5051436;28;20503;-69
2022/07/24 03:57:13;;;;;;;21.85;5.20;;;;;;;34.50;37.17;100605.81;5042253;28;20025;-69
2022/07/24 03:59:40;;;;;;;20.65;5.68;;;;;;;34.46;37.50;100621.19;5043786;28;20446;-69
2022/07/24 04:02:07;;;;;;;18.33;5.30;;;;;;;34.40;37.82;100618.09;5050919;28;20028;-69
2022/07/24 04:04:33;;;;;;;23.45;5.53;;;;;;;34.31;38.52;100623.47;5046753;28;20080;-69
2022/07/24 04:07:00;;;;;;;30.73;5.78;;;;;;;34.35;38.78;100621.41;5054280;28;20021;-69
2022/07/24 04:09:27;;;;;;;27.80;6.07;;;;;;;34.23;38.45;100619.97;5044424;28;20037;-70
2022/07/24 04:11:54;;;;;;;22.65;5.75;;;;;;;34.23;38.61;100619.16;5048595;28;20581;-69
2022/07/24 04:14:20;;;;;;;31.35;6.68;;;;;;;34.14;39.07;100624.59;5038719;28;20033;-70
2022/07/24 04:16:47;;;;;;;32.75;6.10;;;;;;;34.05;39.02;100633.56;5049730;28;20021;-70
2022/07/24 04:19:14;;;;;;;29.55;6.70;;;;;;;34.10;38.52;100633.09;5042081;28;20068;-70
2022/07/24 04:21:41;;;;;;;32.97;6.40;;;;;;;34.00;39.03;100622.00;5041864;28;20025;-70
2022/07/24 04:24:08;;;;;;;38.83;7.60;;;;;;;34.05;39.25;100650.50;5049357;28;20037;-69
2022/07/24 04:26:34;;;;;;;23.65;6.40;;;;;;;33.95;39.59;100651.47;5037654;28;20507;-69
2022/07/24 04:29:01;;;;;;;27.27;6.38;;;;;;;33.96;39.59;100649.47;5048453;28;20036;-68
2022/07/24 04:31:34;;;;;;;26.92;6.60;;;;;;;33.92;38.73;100633.38;5044966;28;20033;-70
2022/07/24 04:34:12;;;;;;;25.63;6.13;;;;;;;33.82;39.16;100650.44;5045262;28;20040;-69
2022/07/24 04:36:39;;;;;;;67.72;6.90;;;;;;;33.80;39.22;100650.88;5054878;28;20040;-70
2022/07/24 04:39:06;;;;;;;25.33;6.10;;;;;;;33.84;39.17;100650.81;5047944;28;20029;-70
2022/07/24 04:41:33;;;;;;;32.88;6.43;;;;;;;33.86;40.16;100657.66;5045193;28;20041;-69
2022/07/24 04:44:00;;;;;;;19.75;5.07;;;;;;;33.80;40.31;100661.34;5040141;28;20049;-69
2022/07/24 04:46:27;;;;;;;27.23;5.88;;;;;;;33.70;40.86;100656.66;5049970;28;20485;-69
2022/07/24 04:48:54;;;;;;;29.13;5.85;;;;;;;33.57;40.91;100657.22;5039891;28;20498;-69
2022/07/24 04:51:20;;;;;;;43.08;5.95;;;;;;;33.60;41.73;100649.97;5045865;28;20034;-70
2022/07/24 04:53:47;;;;;;;19.52;6.28;;;;;;;33.56;41.80;100655.63;5045702;28;20052;-70
2022/07/24 04:56:14;;;;;;;24.77;7.07;;;;;;;33.53;42.40;100670.56;5038336;28;20037;-71
2022/07/24 04:58:41;;;;;;;21.45;6.40;;;;;;;33.41;43.07;100654.25;5037983;28;20071;-70
2022/07/24 05:01:08;;;;;;;26.27;7.40;;;;;;;33.49;43.37;100669.03;5054467;28;20029;-69
2022/07/24 05:03:34;;;;;;;28.48;7.40;;;;;;;33.35;43.38;100672.81;5045417;28;20032;-69
2022/07/24 05:06:01;;;;;;;27.67;7.68;;;;;;;33.33;44.44;100667.59;5054427;28;20033;-70
2022/07/24 05:08:28;;;;;;;34.13;7.15;;;;;;;33.23;44.49;100671.34;5051504;28;20025;-71
2022/07/24 05:10:55;;;;;;;22.63;7.20;;;;;;;33.04;45.11;100674.81;5039621;28;20057;-70
2022/07/24 05:13:21;;;;;;;25.33;6.85;;;;;;;32.95;45.67;100666.03;5043982;28;20104;-71
2022/07/24 05:15:48;;;;;;;22.15;6.57;;;;;;;33.01;45.53;100675.63;5045952;28;20132;-71
2022/07/24 05:18:15;;;;;;;27.33;7.10;;;;;;;32.95;46.05;100677.31;5051330;28;20034;-70
2022/07/24 05:20:42;;;;;;;22.60;6.65;;;;;;;32.88;46.53;100672.56;5037771;28;20060;-69
2022/07/24 05:23:09;;;;;;;23.15;6.85;;;;;;;32.81;46.71;100678.25;5052863;28;20070;-69
2022/07/24 05:25:36;;;;;;;16.13;5.85;;;;;;;32.78;46.73;100678.25;5041546;28;20029;-67
2022/07/24 05:28:02;;;;;;;30.48;6.07;;;;;;;32.68;47.15;100680.78;5048713;28;20029;-69
2022/07/24 05:30:29;;;;;;;26.15;6.80;;;;;;;32.68;46.90;100663.88;5036009;28;20064;-70
2022/07/24 05:32:56;;;;;;;24.73;6.43;;;;;;;32.60;47.33;100684.84;5048568;28;20021;-68
2022/07/24 05:35:23;;;;;;;21.77;6.13;;;;;;;32.58;47.05;100675.25;5050744;28;20055;-70
2022/07/24 05:37:50;;;;;;;20.90;6.60;;;;;;;32.51;47.60;100664.88;5051970;28;20025;-69
2022/07/24 05:40:17;;;;;;;29.38;7.35;;;;;;;32.44;48.41;100670.53;5019139;28;20034;-68
2022/07/24 05:42:43;;;;;;;27.70;6.95;;;;;;;32.45;48.74;100672.13;5049742;28;20059;-70
2022/07/24 05:45:10;;;;;;;22.13;6.70;;;;;;;32.41;48.75;100666.53;5039596;28;20069;-68
2022/07/24 05:47:39;;;;;;;18.55;7.35;;;;;;;32.36;48.97;100658.56;5053353;28;20434;-68
2022/07/24 05:50:10;;;;;;;23.02;7.35;;;;;;;32.37;49.13;100673.44;5037149;28;20029;-69
2022/07/24 05:52:38;;;;;;;27.10;7.97;;;;;;;32.30;49.44;100673.47;5050072;28;20049;-67
2022/07/24 05:55:05;;;;;;;22.00;7.72;;;;;;;32.25;49.40;100679.50;5040042;28;20048;-69
2022/07/24 05:57:32;;;;;;;22.50;8.13;;;;;;;32.14;50.87;100671.97;5042841;28;20037;-68
2022/07/24 05:59:58;;;;;;;28.33;7.63;;;;;;;32.10;51.41;100678.81;5046041;28;20024;-68
2022/07/24 06:02:26;;;;;;;23.73;8.50;;;;;;;32.07;51.82;100674.03;5036650;28;20033;-69
2022/07/24 06:04:52;;;;;;;22.80;8.73;;;;;;;32.01;52.74;100676.47;5049570;28;20364;-70
2022/07/24 06:07:19;;;;;;;22.13;8.00;;;;;;;31.92;54.27;100676.13;5051837;28;20094;-68
2022/07/24 06:09:51;;;;;;;28.33;8.30;;;;;;;31.95;53.72;100675.31;5040434;28;20112;-69
2022/07/24 06:12:18;;;;;;;22.90;7.60;;;;;;;31.73;54.94;100676.66;5049991;28;20033;-69
2022/07/24 06:14:45;;;;;;;21.00;7.45;;;;;;;31.71;54.95;100676.25;5037219;28;20025;-70
2022/07/24 06:17:14;;;;;;;25.20;7.88;;;;;;;31.65;55.33;100677.88;5044086;28;20087;-72
2022/07/24 06:19:43;;;;;;;24.08;8.13;;;;;;;31.63;55.70;100672.69;5043261;28;20028;-70
2022/07/24 06:22:10;;;;;;;27.60;7.90;;;;;;;31.64;56.92;100684.72;5019555;28;20037;-68
2022/07/24 06:24:37;;;;;;;24.27;8.10;;;;;;;31.63;57.63;100680.31;5049368;28;20028;-69
2022/07/24 06:27:04;;;;;;;25.52;8.70;;;;;;;31.51;58.30;100693.59;5038335;28;20394;-70
2022/07/24 06:29:32;;;;;;;30.52;8.85;;;;;;;31.60;58.64;100706.41;5041201;28;20021;-71
2022/07/24 06:31:59;;;;;;;22.25;7.07;;;;;;;31.49;59.48;100698.03;5045652;28;20032;-69
2022/07/24 06:34:25;;;;;;;21.58;7.00;;;;;;;31.32;60.14;100685.66;5042420;28;20124;-70
2022/07/24 06:36:52;;;;;;;25.50;7.43;;;;;;;31.32;60.21;100694.09;5047731;28;20499;-69
2022/07/24 06:39:19;;;;;;;21.90;6.50;;;;;;;31.35;60.66;100698.09;5040193;28;20487;-69
2022/07/24 06:41:46;;;;;;;23.05;6.72;;;;;;;31.27;61.72;100689.69;5038662;28;20041;-68
2022/07/24 06:44:24;;;;;;;25.65;6.30;;;;;;;31.16;61.85;100694.50;5047672;28;20032;-69
2022/07/24 06:46:51;;;;;;;23.83;6.05;;;;;;;31.18;61.92;100697.75;5036168;28;20109;-68
2022/07/24 06:49:18;;;;;;;27.23;6.28;;;;;;;31.10;62.86;100706.56;5043803;28;20041;-69
2022/07/24 06:51:44;;;;;;;26.38;6.65;;;;;;;31.13;63.18;100705.75;5042752;28;20040;-69
2022/07/24 06:54:11;;;;;;;27.50;6.50;;;;;;;31.15;63.36;100708.97;5036541;28;20071;-69
2022/07/24 06:56:38;;;;;;;21.77;6.43;;;;;;;31.10;64.31;100707.38;5049291;28;20060;-69
2022/07/24 06:59:05;;;;;;;26.02;5.85;;;;;;;31.02;64.94;100704.97;5039183;28;20079;-69
2022/07/24 07:01:31;;;;;;;25.17;6.47;;;;;;;30.89;66.25;100713.84;5040736;28;20040;-69
2022/07/24 07:03:58;;;;;;;27.23;5.78;;;;;;;30.90;66.80;100709.84;5046270;28;20068;-68
2022/07/24 07:06:25;;;;;;;25.80;6.40;;;;;;;30.86;67.36;100723.03;5052292;28;20033;-69
2022/07/24 07:08:52;;;;;;;23.33;6.15;;;;;;;30.83;67.34;100709.03;5047414;28;20025;-70
2022/07/24 07:11:19;;;;;;;29.85;6.78;;;;;;;30.78;67.60;100713.03;5041198;28;20033;-70
2022/07/24 07:13:45;;;;;;;21.88;5.70;;;;;;;30.76;68.81;100704.22;5039788;28;20026;-69
2022/07/24 07:16:12;;;;;;;20.00;5.82;;;;;;;30.73;68.91;100707.06;5048262;28;20040;-71
2022/07/24 07:18:39;;;;;;;27.00;6.32;;;;;;;30.66;69.41;100700.22;5035768;28;20063;-70
2022/07/24 07:21:06;;;;;;;23.45;6.53;;;;;;;30.54;69.69;100692.22;5045401;28;20479;-68
2022/07/24 07:23:32;;;;;;;22.90;6.90;;;;;;;30.61;70.24;100697.00;5042725;28;20043;-70
2022/07/24 07:25:59;;;;;;;20.17;5.80;;;;;;;30.59;70.57;100697.41;5036619;28;20029;-69
2022/07/24 07:28:26;;;;;;;27.85;6.25;;;;;;;30.58;70.38;100697.81;5048689;28;20057;-68
2022/07/24 07:30:52;;;;;;;22.88;6.15;;;;;;;30.55;70.73;100696.63;5035990;28;20075;-69
2022/07/24 07:33:19;;;;;;;23.80;6.45;;;;;;;30.58;70.64;100687.38;5042295;28;20036;-69
2022/07/24 07:35:46;;;;;;;23.25;5.82;;;;;;;30.52;70.81;100688.19;5067195;28;20124;-70
2022/07/24 07:38:13;;;;;;;27.45;6.95;;;;;;;30.45;70.93;100683.38;5050914;28;20052;-69
2022/07/24 07:40:39;;;;;;;23.70;6.60;;;;;;;30.45;70.62;100688.19;5035370;28;20032;-70
2022/07/24 07:43:06;;;;;;;31.80;6.57;;;;;;;30.39;71.67;100690.59;5043483;28;20461;-69
2022/07/24 07:45:33;;;;;;;28.83;6.93;;;;;;;30.48;72.39;100688.19;5042561;28;20048;-68
2022/07/24 07:48:00;;;;;;;25.17;6.75;;;;;;;30.44;72.84;100684.59;5037554;28;20383;-68
2022/07/24 07:50:27;;;;;;;24.33;7.28;;;;;;;30.44;73.47;100689.41;5048322;28;20403;-68
2022/07/24 07:52:53;;;;;;;22.90;7.00;;;;;;;30.41;72.73;100684.59;5037256;28;20017;-68
2022/07/24 07:55:22;;;;;;;31.17;8.13;;;;;;;30.38;73.64;100697.41;5042587;28;20148;-69
2022/07/24 07:57:49;;;;;;;26.80;8.43;;;;;;;30.21;73.34;100679.38;5044970;28;20083;-69
2022/07/24 08:00:19;;;;;;;36.17;9.27;;;;;;;30.24;74.06;100684.19;5034017;28;20577;-69
2022/07/24 08:02:46;;;;;;;28.40;9.60;;;;;;;30.25;74.20;100694.19;5050923;28;20361;-69
2022/07/24 08:05:13;;;;;;;29.23;9.25;;;;;;;30.28;74.18;100690.59;5049933;28;20063;-68
2022/07/24 08:07:39;;;;;;;27.15;9.95;;;;;;;30.31;73.90;100694.59;5055379;28;20503;-68
2022/07/24 08:10:10;;;;;;;26.60;9.43;;;;;;;30.25;73.88;100691.41;5040004;28;20533;-69
2022/07/24 08:12:36;;;;;;;27.17;8.40;;;;;;;30.20;74.40;100691.81;5052087;28;20041;-68
2022/07/24 08:15:04;;;;;;;29.80;8.07;;;;;;;30.28;75.14;100690.59;5040659;28;20033;-69
2022/07/24 08:17:30;;;;;;;27.40;7.82;;;;;;;30.16;75.05;100671.34;5045128;28;20036;-70
2022/07/24 08:19:57;;;;;;;26.63;7.72;;;;;;;30.14;76.15;100690.56;5049031;28;20075;-69
2022/07/24 08:22:24;;;;;;;27.02;7.82;;;;;;;30.19;76.27;100686.59;5038830;28;20104;-68
2022/07/24 08:24:50;;;;;;;24.38;7.38;;;;;;;30.24;76.79;100689.78;5050106;28;20369;-71
2022/07/24 08:27:17;;;;;;;25.88;7.55;;;;;;;30.17;77.13;100694.59;5026319;28;20033;-68
2022/07/24 08:29:44;;;;;;;25.75;6.95;;;;;;;30.12;77.45;100694.97;5042623;28;20476;-69
2022/07/24 08:32:10;;;;;;;27.35;7.82;;;;;;;30.11;77.77;100701.78;5050186;28;20017;-68
2022/07/24 08:34:37;;;;;;;26.70;7.90;;;;;;;30.00;78.29;100679.34;5053246;28;20518;-69
2022/07/24 08:37:04;;;;;;;26.33;7.05;;;;;;;30.00;77.95;100690.56;5051665;28;20024;-68
2022/07/24 08:39:30;;;;;;;29.48;7.68;;;;;;;30.04;78.36;100694.19;5052925;28;20044;-67
2022/07/24 08:41:57;;;;;;;25.08;6.93;;;;;;;30.05;78.66;100690.97;5054049;28;20045;-67
2022/07/24 08:44:24;;;;;;;24.67;7.60;;;;;;;29.97;78.82;100694.13;5052999;28;20044;-66
2022/07/24 08:46:53;;;;;;;40.65;8.75;;;;;;;29.96;79.33;100686.91;5054063;28;20025;-65
2022/07/24 08:49:22;;;;;;;26.75;8.07;;;;;;;29.99;79.50;100684.16;5051637;28;20029;-67
2022/07/24 08:51:51;;;;;;;28.42;8.68;;;;;;;29.90;80.37;100685.72;5053856;28;20119;-67
2022/07/24 08:54:18;;;;;;;25.02;8.65;;;;;;;29.81;80.18;100688.91;5053966;28;20033;-67
2022/07/24 08:56:44;;;;;;;26.42;8.77;;;;;;;29.76;80.73;100683.69;5054138;28;20060;-68
2022/07/24 08:59:22;;;;;;;27.60;9.05;;;;;;;29.86;80.43;100694.13;5054107;28;20472;-66
2022/07/24 09:01:50;;;;;;;30.98;9.00;;;;;;;29.68;80.73;100663.25;5041679;28;20088;-66
2022/07/24 09:04:38;;;;;;;30.20;9.25;;;;;;;29.85;80.58;100680.50;5050677;28;20033;-66
2022/07/24 09:07:10;;;;;;;28.48;9.57;;;;;;;29.84;80.77;100684.50;5054341;28;20033;-66
2022/07/24 09:09:38;;;;;;;32.50;10.98;;;;;;;29.81;81.04;100676.91;5042944;28;20095;-67
2022/07/24 09:12:12;;;;;;;32.38;11.15;;;;;;;29.81;80.63;100680.50;5049390;28;20056;-66
2022/07/24 09:14:41;;;;;;;28.73;9.65;;;;;;;29.74;81.15;100681.28;5036788;28;20387;-67
2022/07/24 09:17:14;;;;;;;31.40;9.98;;;;;;;29.72;80.92;100685.66;5046613;28;20061;-69
2022/07/24 09:19:58;;;;;;;25.80;8.57;;;;;;;29.78;81.13;100690.47;5045586;28;20041;-68
2022/07/24 09:22:26;;;;;;;26.63;9.32;;;;;;;29.76;80.60;100692.09;5052794;28;20029;-67
2022/07/24 09:25:14;;;;;;;29.80;9.73;;;;;;;29.73;80.76;100682.47;5039098;28;20021;-67
2022/07/24 09:27:55;;;;;;;27.42;8.65;;;;;;;29.66;81.24;100676.88;5042155;28;20395;-67
2022/07/24 09:30:45;;;;;;;26.27;9.25;;;;;;;29.70;81.85;100676.88;5050446;28;20040;-66
2022/07/24 09:33:12;;;;;;;25.75;9.02;;;;;;;29.68;81.58;100680.06;5042384;28;20036;-67
2022/07/24 09:35:40;;;;;;;30.63;9.65;;;;;;;29.63;82.63;100683.25;5052706;28;20112;-67
2022/07/24 09:38:12;;;;;;;29.27;10.05;;;;;;;29.62;82.65;100680.84;5053854;28;20455;-69
2022/07/24 09:40:50;;;;;;;28.25;9.25;;;;;;;29.58;82.65;100680.81;5037204;28;20040;-68
2022/07/24 09:43:31;;;;;;;30.55;9.40;;;;;;;29.57;82.11;100682.03;5044817;28;20522;-68
2022/07/24 09:46:01;;;;;;;28.48;8.63;;;;;;;29.56;82.77;100683.22;5046767;28;20056;-68
2022/07/24 09:48:33;;;;;;;30.08;9.18;;;;;;;29.52;82.73;100688.00;5036922;28;20161;-69
2022/07/24 09:51:20;;;;;;;27.92;8.30;;;;;;;29.47;82.75;100680.00;5053395;28;20025;-66
2022/07/24 09:53:53;;;;;;;26.88;8.13;;;;;;;29.44;83.50;100678.78;5039470;28;20140;-67
2022/07/24 09:56:20;;;;;;;30.00;8.50;;;;;;;29.43;83.76;100679.94;5049986;28;20036;-67
2022/07/24 09:58:47;;;;;;;23.55;8.13;;;;;;;29.42;84.12;100680.34;5037642;28;20029;-68
2022/07/24 10:01:16;;;;;;;27.42;8.45;;;;;;;29.43;84.42;100685.53;5045194;28;20041;-69
2022/07/24 10:03:45;;;;;;;25.75;8.15;;;;;;;29.35;83.03;100678.31;5042937;28;20064;-67
2022/07/24 10:06:14;;;;;;;28.38;8.48;;;;;;;29.36;84.23;100690.31;5053254;28;20036;-67
2022/07/24 10:08:42;;;;;;;28.35;8.07;;;;;;;29.27;84.97;100670.28;5036819;28;20104;-66
2022/07/24 10:11:10;;;;;;;27.67;7.38;;;;;;;29.35;85.14;100683.91;5053042;28;20561;-67
2022/07/24 10:13:37;;;;;;;26.40;7.57;;;;;;;29.35;84.98;100683.13;5041653;28;20025;-66
2022/07/24 10:16:13;;;;;;;30.65;7.93;;;;;;;29.31;85.21;100682.31;5046788;28;20120;-69
2022/07/24 10:18:51;;;;;;;31.63;8.15;;;;;;;29.31;84.99;100687.91;5036625;28;20032;-68
2022/07/24 10:21:30;;;;;;;27.85;8.07;;;;;;;29.35;85.02;100689.53;5044468;28;20087;-68
2022/07/24 10:24:10;;;;;;;28.35;8.48;;;;;;;29.30;84.85;100694.69;5046487;28;20106;-67
2022/07/24 10:26:42;;;;;;;25.65;7.35;;;;;;;29.19;84.82;100684.25;5035088;28;20025;-68
2022/07/24 10:29:15;;;;;;;24.20;7.40;;;;;;;29.24;84.94;100683.06;5045554;28;20033;-66
2022/07/24 10:31:45;;;;;;;24.70;7.40;;;;;;;29.24;84.58;100687.84;5044294;28;20491;-66
2022/07/24 10:34:50;;;;;;;29.50;7.30;;;;;;;29.21;85.16;100697.03;5042768;28;20037;-65
2022/07/24 10:37:29;;;;;;;26.20;7.20;;;;;;;29.18;85.30;100693.03;5040564;28;20049;-66
2022/07/24 10:40:18;;;;;;;27.83;7.22;;;;;;;29.22;84.80;100701.44;5052346;28;20511;-66
2022/07/24 10:43:08;;;;;;;28.73;7.53;;;;;;;29.24;85.12;100696.25;5036503;28;20048;-66
2022/07/24 10:46:04;;;;;;;26.00;7.22;;;;;;;29.15;85.00;100700.22;5052490;28;20037;-65
2022/07/24 10:48:35;;;;;;;29.95;7.97;;;;;;;29.13;84.62;100699.81;5026035;28;20407;-65
2022/07/24 10:51:11;;;;;;;26.85;7.82;;;;;;;29.14;84.84;100701.41;5045261;28;20086;-66
2022/07/24 10:53:38;;;;;;;25.50;7.40;;;;;;;29.06;84.89;100716.56;5043120;28;20036;-65
2022/07/24 10:56:24;;;;;;;27.95;7.72;;;;;;;29.09;85.09;100707.41;5037199;28;20068;-67
2022/07/24 10:59:07;;;;;;;25.55;7.80;;;;;;;29.07;85.19;100711.75;5039633;28;20025;-66
2022/07/24 11:01:53;;;;;;;23.50;7.05;;;;;;;29.09;85.10;100715.00;5052288;28;20047;-66
2022/07/24 11:04:23;;;;;;;26.83;6.97;;;;;;;29.09;85.68;100721.38;5043081;28;20448;-66
2022/07/24 11:06:54;;;;;;;24.80;7.32;;;;;;;29.00;84.34;100718.13;5052316;28;20441;-67
2022/07/24 11:09:25;;;;;;;25.30;7.65;;;;;;;28.87;84.63;100712.03;5043339;28;20037;-67
2022/07/24 11:11:52;;;;;;;26.95;7.50;;;;;;;29.04;84.90;100730.13;5045432;28;20037;-68
2022/07/24 11:14:23;;;;;;;25.63;6.82;;;;;;;28.89;84.19;100728.44;5035735;28;20022;-68
2022/07/24 11:16:51;;;;;;;28.85;7.47;;;;;;;28.98;85.29;100730.91;5046273;28;20033;-67
2022/07/24 11:19:17;;;;;;;27.85;7.28;;;;;;;28.95;85.69;100734.47;5040723;28;20052;-67
2022/07/24 11:21:49;;;;;;;37.20;7.30;;;;;;;28.94;85.12;100742.06;5039830;28;20037;-67
2022/07/24 11:24:17;;;;;;;27.58;7.30;;;;;;;28.97;84.93;100755.28;5048559;28;20136;-67